createdAt,value
2022-12-25T00:00:26.845Z,38.22
2022-12-25T00:02:55.842Z,39.78
2022-12-25T00:05:25.739Z,39.38
2022-12-25T00:08:01.470Z,33.80
2022-12-25T00:10:32.412Z,35.47
2022-12-25T00:13:00.364Z,36.08
2022-12-25T00:15:28.805Z,35.80
2022-12-25T00:17:58.585Z,40.47
2022-12-25T00:20:30.543Z,38.35
2022-12-25T00:22:59.942Z,43.78
2022-12-25T00:25:27.852Z,39.90
2022-12-25T00:27:58.880Z,38.92
2022-12-25T00:30:35.624Z,38.08
2022-12-25T00:33:05.022Z,36.40
2022-12-25T00:35:32.924Z,34.80
2022-12-25T00:38:02.244Z,35.20
2022-12-25T00:40:30.267Z,34.35
2022-12-25T00:43:03.352Z,34.80
2022-12-25T00:45:31.349Z,34.85
2022-12-25T00:47:59.290Z,35.10
2022-12-25T00:50:27.290Z,33.47
2022-12-25T00:52:55.219Z,32.20
2022-12-25T00:55:24.509Z,31.70
2022-12-25T00:57:52.598Z,32.25
2022-12-25T01:00:20.926Z,31.45
2022-12-25T01:02:48.981Z,33.63
2022-12-25T01:05:17.161Z,30.30
2022-12-25T01:07:45.119Z,30.33
2022-12-25T01:10:23.987Z,32.47
2022-12-25T01:12:53.705Z,32.42
2022-12-25T01:15:21.958Z,30.83
2022-12-25T01:17:49.873Z,36.30
2022-12-25T01:20:19.464Z,34.47
2022-12-25T01:22:47.412Z,39.42
2022-12-25T01:25:15.415Z,34.90
2022-12-25T01:27:43.624Z,37.38
2022-12-25T01:30:13.621Z,35.33
2022-12-25T01:32:41.599Z,41.53
2022-12-25T01:35:10.012Z,38.83
2022-12-25T01:37:37.958Z,36.88
2022-12-25T01:40:08.995Z,39.63
2022-12-25T01:42:37.216Z,39.25
2022-12-25T01:45:35.956Z,43.87
2022-12-25T01:48:08.009Z,37.30
2022-12-25T01:50:38.123Z,40.08
2022-12-25T01:53:07.188Z,43.78
2022-12-25T01:55:37.291Z,39.47
2022-12-25T01:58:05.668Z,39.33
2022-12-25T02:00:35.405Z,41.43
2022-12-25T02:03:03.701Z,43.40
2022-12-25T02:05:33.697Z,40.57
2022-12-25T02:08:05.328Z,45.53
2022-12-25T02:10:33.581Z,40.55
2022-12-25T02:13:02.262Z,40.57
2022-12-25T02:15:40.035Z,40.13
2022-12-25T02:18:13.809Z,40.53
2022-12-25T02:20:53.953Z,40.00
2022-12-25T02:23:51.963Z,36.92
2022-12-25T02:26:46.218Z,41.58
2022-12-25T02:29:20.609Z,38.80
2022-12-25T02:31:55.309Z,39.33
2022-12-25T02:34:32.177Z,36.88
2022-12-25T02:37:07.696Z,41.15
2022-12-25T02:40:00.367Z,37.22
2022-12-25T02:42:53.000Z,37.22
2022-12-25T02:45:44.716Z,33.50
2022-12-25T02:48:32.130Z,34.15
2022-12-25T02:51:19.778Z,33.88
2022-12-25T02:54:10.122Z,35.95
2022-12-25T02:56:58.817Z,34.75
2022-12-25T02:59:47.749Z,30.77
2022-12-25T03:02:33.706Z,33.28
2022-12-25T03:05:22.742Z,34.63
2022-12-25T03:07:51.568Z,32.83
2022-12-25T03:10:38.333Z,35.42
2022-12-25T03:13:13.697Z,30.73
2022-12-25T03:15:59.200Z,34.88
2022-12-25T03:18:31.586Z,32.00
2022-12-25T03:21:17.730Z,32.45
2022-12-25T03:24:16.476Z,33.42
2022-12-25T03:26:57.541Z,34.45
2022-12-25T03:29:45.223Z,32.25
2022-12-25T03:32:21.239Z,32.42
2022-12-25T03:35:16.538Z,32.90
2022-12-25T03:38:17.432Z,31.77
2022-12-25T03:41:14.479Z,33.08
2022-12-25T03:44:08.327Z,33.63
2022-12-25T03:46:59.520Z,33.75
2022-12-25T03:50:04.092Z,35.38
2022-12-25T03:52:53.314Z,35.80
2022-12-25T03:55:41.023Z,34.00
2022-12-25T03:58:36.078Z,34.55
2022-12-25T04:01:21.391Z,34.72
2022-12-25T04:04:06.759Z,35.40
2022-12-25T04:06:52.056Z,34.60
2022-12-25T04:09:35.220Z,36.85
2022-12-25T04:12:20.674Z,35.58
2022-12-25T04:15:02.601Z,37.45
2022-12-25T04:17:48.025Z,35.03
2022-12-25T04:20:33.802Z,36.80
2022-12-25T04:23:19.082Z,34.78
2022-12-25T04:26:05.587Z,34.97
2022-12-25T04:28:50.811Z,34.15
2022-12-25T04:31:36.716Z,34.50
2022-12-25T04:34:21.996Z,34.08
2022-12-25T04:36:49.951Z,32.20
2022-12-25T04:39:18.116Z,32.72
2022-12-25T04:41:47.537Z,30.38
2022-12-25T04:44:15.629Z,32.45
2022-12-25T04:46:43.600Z,32.13
2022-12-25T04:49:11.640Z,31.88
2022-12-25T04:51:39.764Z,29.67
2022-12-25T04:54:07.772Z,29.70
2022-12-25T04:56:41.704Z,31.00
2022-12-25T04:59:14.841Z,29.38
2022-12-25T05:01:43.121Z,29.33
2022-12-25T05:04:11.201Z,29.95
2022-12-25T05:06:39.123Z,29.75
2022-12-25T05:09:07.201Z,29.95
2022-12-25T05:11:35.148Z,29.55
2022-12-25T05:14:03.057Z,31.42
2022-12-25T05:16:32.617Z,29.30
2022-12-25T05:19:00.580Z,31.33
2022-12-25T05:21:28.511Z,31.40
2022-12-25T05:23:56.540Z,30.50
2022-12-25T05:26:27.322Z,32.08
2022-12-25T05:28:56.088Z,31.58
2022-12-25T05:31:24.319Z,31.45
2022-12-25T05:33:54.019Z,34.20
2022-12-25T05:36:21.988Z,31.73
2022-12-25T05:38:49.962Z,33.20
2022-12-25T05:41:18.004Z,34.10
2022-12-25T05:43:46.004Z,34.25
2022-12-25T05:46:14.505Z,33.03
2022-12-25T05:48:43.027Z,34.83
2022-12-25T05:51:14.727Z,32.47
2022-12-25T05:53:43.840Z,33.70
2022-12-25T05:56:12.295Z,32.92
2022-12-25T05:58:41.304Z,35.63
2022-12-25T06:01:13.153Z,40.33
2022-12-25T06:03:41.360Z,42.20
2022-12-25T06:06:09.527Z,42.77
2022-12-25T06:08:39.121Z,42.33
2022-12-25T06:11:08.702Z,41.92
2022-12-25T06:13:37.635Z,38.38
2022-12-25T06:16:08.021Z,37.55
2022-12-25T06:18:36.977Z,36.88
2022-12-25T06:21:07.887Z,38.20
2022-12-25T06:23:36.229Z,36.75
2022-12-25T06:26:07.291Z,39.20
2022-12-25T06:28:35.449Z,41.45
2022-12-25T06:31:07.415Z,36.42
2022-12-25T06:33:35.410Z,36.30
2022-12-25T06:36:07.007Z,33.13
2022-12-25T06:38:35.228Z,33.80
2022-12-25T06:41:11.711Z,34.55
2022-12-25T06:43:40.121Z,33.60
2022-12-25T06:46:10.138Z,33.03
2022-12-25T06:48:39.588Z,30.77
2022-12-25T06:51:08.309Z,30.98
2022-12-25T06:53:40.146Z,31.33
2022-12-25T06:56:15.395Z,30.85
2022-12-25T06:58:45.024Z,31.23
2022-12-25T07:01:19.651Z,32.40
2022-12-25T07:03:49.335Z,34.20
2022-12-25T07:06:17.342Z,33.13
2022-12-25T07:08:45.389Z,34.17
2022-12-25T07:11:14.713Z,33.78
2022-12-25T07:13:42.659Z,32.50
2022-12-25T07:16:12.435Z,33.63
2022-12-25T07:18:40.569Z,33.35
2022-12-25T07:21:09.904Z,32.33
2022-12-25T07:23:38.593Z,32.97
2022-12-25T07:26:07.221Z,30.95
2022-12-25T07:28:36.580Z,29.80
2022-12-25T07:31:06.097Z,28.63
2022-12-25T07:33:35.042Z,29.42
2022-12-25T07:36:03.497Z,29.95
2022-12-25T07:38:31.816Z,26.75
2022-12-25T07:40:59.809Z,26.60
2022-12-25T07:43:28.228Z,27.77
2022-12-25T07:45:58.779Z,28.33
2022-12-25T07:48:27.347Z,28.90
2022-12-25T07:50:59.405Z,29.60
2022-12-25T07:53:27.624Z,25.92
2022-12-25T07:56:00.803Z,26.57
2022-12-25T07:58:28.876Z,26.75
2022-12-25T08:01:04.389Z,26.23
2022-12-25T08:03:32.722Z,24.98
2022-12-25T08:06:01.864Z,23.95
2022-12-25T08:08:31.483Z,22.48
2022-12-25T08:10:59.740Z,21.48
2022-12-25T08:13:27.803Z,20.42
2022-12-25T08:15:59.984Z,19.55
2022-12-25T08:18:30.255Z,21.05
2022-12-25T08:21:02.960Z,18.45
2022-12-25T08:23:30.926Z,18.55
2022-12-25T08:26:05.085Z,18.73
2022-12-25T08:28:35.317Z,19.17
2022-12-25T08:31:10.067Z,19.58
2022-12-25T08:33:38.679Z,20.50
2022-12-25T08:36:08.614Z,20.65
2022-12-25T08:38:37.061Z,20.80
2022-12-25T08:41:06.948Z,20.23
2022-12-25T08:43:35.313Z,19.15
2022-12-25T08:46:03.456Z,18.63
2022-12-25T08:48:33.247Z,19.33
2022-12-25T08:51:01.980Z,18.25
2022-12-25T08:53:29.982Z,18.45
2022-12-25T08:55:59.786Z,19.77
2022-12-25T08:58:28.722Z,19.60
2022-12-25T09:03:25.105Z,20.08
2022-12-25T09:05:55.289Z,19.20
2022-12-25T09:08:23.371Z,21.75
2022-12-25T09:10:51.319Z,21.80
2022-12-25T09:13:19.356Z,22.92
2022-12-25T09:15:47.458Z,23.00
2022-12-25T09:18:15.520Z,21.90
2022-12-25T09:20:43.432Z,22.70
2022-12-25T09:23:14.398Z,21.95
2022-12-25T09:25:42.519Z,22.27
2022-12-25T09:28:10.430Z,22.98
2022-12-25T09:30:38.406Z,21.08
2022-12-25T09:33:07.124Z,19.38
2022-12-25T09:35:35.133Z,21.23
2022-12-25T09:38:03.212Z,18.85
2022-12-25T09:40:33.891Z,19.83
2022-12-25T09:43:03.955Z,20.45
2022-12-25T09:45:36.939Z,20.92
2022-12-25T09:48:05.586Z,22.85
2022-12-25T09:50:43.807Z,22.05
2022-12-25T09:53:16.940Z,23.48
2022-12-25T09:55:54.073Z,22.92
2022-12-25T09:58:22.129Z,22.38
2022-12-25T10:00:59.703Z,22.60
2022-12-25T10:03:59.577Z,24.30
2022-12-25T10:06:35.930Z,23.55
2022-12-25T10:09:17.497Z,22.55
2022-12-25T10:12:00.879Z,29.15
2022-12-25T10:14:37.624Z,30.23
2022-12-25T10:17:24.809Z,31.75
2022-12-25T10:20:00.926Z,30.10
2022-12-25T10:22:34.653Z,28.92
2022-12-25T10:25:04.652Z,30.05
2022-12-25T10:27:38.212Z,28.02
2022-12-25T10:30:15.974Z,28.80
2022-12-25T10:32:45.523Z,29.38
2022-12-25T10:35:15.042Z,28.05
2022-12-25T10:37:44.569Z,26.48
2022-12-25T10:40:32.238Z,26.67
2022-12-25T10:43:08.934Z,26.95
2022-12-25T10:45:44.869Z,27.73
2022-12-25T10:48:21.652Z,28.80
2022-12-25T10:50:50.335Z,27.30
2022-12-25T10:53:22.397Z,25.25
2022-12-25T10:55:58.808Z,24.88
2022-12-25T10:58:28.898Z,25.08
2022-12-25T11:01:00.088Z,25.83
2022-12-25T11:03:31.355Z,25.88
2022-12-25T11:05:59.644Z,24.70
2022-12-25T11:08:29.981Z,24.30
2022-12-25T11:11:06.183Z,23.10
2022-12-25T11:13:40.619Z,22.48
2022-12-25T11:16:11.744Z,23.42
2022-12-25T11:18:48.667Z,24.15
2022-12-25T11:21:18.543Z,23.08
2022-12-25T11:23:49.787Z,21.67
2022-12-25T11:26:19.304Z,22.08
2022-12-25T11:28:51.343Z,22.38
2022-12-25T11:31:21.068Z,18.88
2022-12-25T11:33:54.996Z,19.80
2022-12-25T11:36:30.375Z,23.92
2022-12-25T11:39:06.011Z,22.30
2022-12-25T11:41:37.506Z,23.05
2022-12-25T11:44:17.069Z,24.60
2022-12-25T11:46:50.380Z,24.42
2022-12-25T11:49:21.401Z,21.88
2022-12-25T11:51:53.105Z,23.38
2022-12-25T11:54:26.461Z,23.40
2022-12-25T11:56:55.091Z,22.75
2022-12-25T12:02:01.249Z,19.80
2022-12-25T12:04:40.245Z,18.27
2022-12-25T12:07:21.908Z,16.98
2022-12-25T12:09:56.346Z,22.75
2022-12-25T12:12:33.387Z,24.33
2022-12-25T12:15:10.173Z,27.33
2022-12-25T12:17:38.236Z,28.58
2022-12-25T12:20:13.485Z,28.95
2022-12-25T12:22:51.417Z,32.00
2022-12-25T12:25:20.008Z,31.77
2022-12-25T12:27:59.745Z,32.30
2022-12-25T12:30:35.857Z,31.77
2022-12-25T12:33:07.484Z,33.22
2022-12-25T12:35:38.292Z,34.35
2022-12-25T12:38:12.363Z,32.42
2022-12-25T12:40:42.758Z,31.88
2022-12-25T12:43:30.131Z,32.33
2022-12-25T12:46:05.267Z,29.92
2022-12-25T12:48:41.558Z,33.05
2022-12-25T12:51:11.612Z,29.02
2022-12-25T12:53:41.178Z,26.23
2022-12-25T12:56:16.280Z,18.88
2022-12-25T12:58:49.873Z,23.85
2022-12-25T13:01:43.655Z,26.65
2022-12-25T13:04:48.280Z,27.92
2022-12-25T13:07:33.037Z,28.85
2022-12-25T13:10:14.700Z,28.90
2022-12-25T13:12:42.786Z,27.65
2022-12-25T13:15:14.120Z,27.60
2022-12-25T13:17:48.056Z,27.77
2022-12-25T13:20:31.324Z,27.58
2022-12-25T13:22:59.317Z,27.00
2022-12-25T13:25:27.246Z,26.23
2022-12-25T13:27:59.689Z,25.33
2022-12-25T13:30:28.251Z,24.73
2022-12-25T13:33:00.169Z,24.63
2022-12-25T13:35:28.816Z,25.08
2022-12-25T13:37:57.761Z,24.65
2022-12-25T13:40:28.205Z,24.35
2022-12-25T13:42:59.189Z,24.65
2022-12-25T13:45:29.750Z,24.38
2022-12-25T13:48:00.113Z,24.67
2022-12-25T13:50:30.510Z,27.10
2022-12-25T13:53:12.386Z,27.92
2022-12-25T13:55:42.854Z,28.38
2022-12-25T13:58:23.824Z,29.23
2022-12-25T14:00:55.697Z,30.05
2022-12-25T14:03:31.554Z,32.70
2022-12-25T14:06:01.706Z,32.58
2022-12-25T14:08:32.238Z,33.92
2022-12-25T14:11:03.766Z,34.30
2022-12-25T14:13:33.899Z,33.63
2022-12-25T14:16:02.605Z,35.83
2022-12-25T14:18:32.237Z,34.28
2022-12-25T14:21:03.517Z,34.63
2022-12-25T14:23:40.579Z,32.97
2022-12-25T14:26:08.775Z,41.92
2022-12-25T14:28:37.768Z,40.05
2022-12-25T14:31:06.242Z,37.00
2022-12-25T14:33:39.607Z,35.67
2022-12-25T14:36:08.525Z,37.00
2022-12-25T14:41:07.594Z,36.15
2022-12-25T14:43:36.499Z,35.00
2022-12-25T14:46:06.970Z,37.80
2022-12-25T14:48:36.500Z,37.95
2022-12-25T14:51:07.187Z,37.85
2022-12-25T14:53:39.387Z,38.88
2022-12-25T14:56:09.074Z,38.60
2022-12-25T14:58:42.749Z,38.00
2022-12-25T15:01:22.058Z,38.33
2022-12-25T15:03:51.732Z,40.97
2022-12-25T15:06:22.429Z,40.97
2022-12-25T15:08:57.812Z,40.03
2022-12-25T15:11:25.854Z,40.33
2022-12-25T15:13:53.906Z,40.27
2022-12-25T15:16:24.352Z,37.47
2022-12-25T15:18:54.863Z,37.70
2022-12-25T15:21:26.800Z,38.33
2022-12-25T15:23:55.637Z,38.40
2022-12-25T15:26:24.027Z,39.03
2022-12-25T15:28:52.426Z,38.83
2022-12-25T15:31:23.463Z,39.15
2022-12-25T15:33:54.148Z,39.45
2022-12-25T15:36:22.437Z,39.35
2022-12-25T15:38:51.212Z,41.40
2022-12-25T15:41:36.821Z,42.17
2022-12-25T15:44:06.615Z,42.03
2022-12-25T15:46:35.271Z,44.85
2022-12-25T15:49:05.592Z,46.75
2022-12-25T15:51:34.065Z,45.78
2022-12-25T15:54:02.071Z,45.42
2022-12-25T15:56:31.146Z,47.22
2022-12-25T16:01:26.862Z,48.70
2022-12-25T16:03:55.034Z,51.80
2022-12-25T16:06:24.518Z,53.30
2022-12-25T16:08:52.425Z,52.70
2022-12-25T16:11:20.383Z,54.95
2022-12-25T16:13:48.388Z,55.88
2022-12-25T16:16:16.452Z,58.78
2022-12-25T16:18:47.658Z,57.95
2022-12-25T16:21:18.753Z,59.40
2022-12-25T16:23:48.317Z,57.50
2022-12-25T16:26:16.358Z,59.53
2022-12-25T16:28:44.444Z,58.30
2022-12-25T16:31:13.144Z,57.97
2022-12-25T16:33:41.210Z,56.35
2022-12-25T16:36:09.966Z,56.67
2022-12-25T16:38:38.510Z,58.25
2022-12-25T16:41:09.245Z,57.40
2022-12-25T16:43:37.239Z,58.78
2022-12-25T16:46:10.129Z,59.78
2022-12-25T16:48:38.257Z,58.90
2022-12-25T16:51:09.858Z,54.28
2022-12-25T16:53:37.927Z,56.70
2022-12-25T16:56:08.690Z,57.03
2022-12-25T16:58:36.693Z,59.38
2022-12-25T17:01:08.839Z,59.80
2022-12-25T17:03:36.976Z,61.13
2022-12-25T17:06:05.763Z,59.10
2022-12-25T17:08:33.763Z,57.55
2022-12-25T17:11:05.113Z,59.60
2022-12-25T17:13:35.306Z,57.15
2022-12-25T17:16:13.540Z,60.03
2022-12-25T17:18:41.498Z,61.85
2022-12-25T17:21:09.646Z,63.35
2022-12-25T17:23:38.251Z,59.20
2022-12-25T17:26:07.184Z,59.88
2022-12-25T17:28:36.548Z,58.42
2022-12-25T17:31:05.036Z,56.20
2022-12-25T17:33:33.821Z,56.55
2022-12-25T17:36:06.160Z,56.80
2022-12-25T17:38:35.002Z,56.90
2022-12-25T17:41:05.605Z,55.83
2022-12-25T17:43:34.126Z,50.33
2022-12-25T17:46:07.154Z,51.22
2022-12-25T17:48:36.461Z,48.40
2022-12-25T17:51:05.669Z,49.10
2022-12-25T17:53:35.967Z,48.70
2022-12-25T17:56:04.066Z,47.38
2022-12-25T17:58:32.106Z,48.33
2022-12-25T18:01:08.042Z,50.10
2022-12-25T18:03:36.870Z,46.88
2022-12-25T18:06:05.624Z,47.17
2022-12-25T18:08:38.959Z,47.42
2022-12-25T18:11:10.315Z,43.97
2022-12-25T18:13:40.545Z,42.38
2022-12-25T18:16:10.569Z,41.08
2022-12-25T18:18:38.537Z,39.15
2022-12-25T18:21:06.791Z,40.95
2022-12-25T18:23:35.126Z,38.25
2022-12-25T18:26:03.619Z,37.53
2022-12-25T18:28:32.011Z,37.25
2022-12-25T18:31:00.454Z,36.17
2022-12-25T18:33:29.854Z,36.47
2022-12-25T18:35:59.134Z,34.13
2022-12-25T18:38:28.594Z,34.95
2022-12-25T18:40:57.034Z,33.90
2022-12-25T18:43:51.541Z,34.22
2022-12-25T18:46:13.472Z,35.03
2022-12-25T18:48:42.906Z,35.03
2022-12-25T18:51:14.547Z,36.70
2022-12-25T18:53:42.994Z,40.72
2022-12-25T18:56:13.459Z,48.28
2022-12-25T18:58:41.721Z,43.83
2022-12-25T19:01:15.312Z,34.05
2022-12-25T19:03:45.839Z,34.50
2022-12-25T19:06:18.369Z,32.83
2022-12-25T19:08:46.972Z,32.83
2022-12-25T19:11:15.068Z,32.38
2022-12-25T19:13:43.445Z,30.58
2022-12-25T19:16:12.100Z,29.17
2022-12-25T19:18:40.497Z,25.60
2022-12-25T19:21:11.161Z,26.48
2022-12-25T19:23:40.010Z,25.73
2022-12-25T19:26:09.590Z,24.48
2022-12-25T19:28:38.677Z,23.08
2022-12-25T19:33:38.423Z,18.98
2022-12-25T19:36:10.739Z,20.13
2022-12-25T19:38:38.768Z,18.90
2022-12-25T19:41:07.792Z,17.83
2022-12-25T19:43:37.856Z,19.52
2022-12-25T19:46:07.115Z,19.73
2022-12-25T19:48:35.909Z,18.92
2022-12-25T19:51:03.903Z,21.60
2022-12-25T19:53:33.231Z,19.80
2022-12-25T19:56:03.359Z,21.33
2022-12-25T19:58:31.348Z,19.80
2022-12-25T20:00:59.983Z,19.58
2022-12-25T20:03:28.405Z,20.30
2022-12-25T20:05:56.611Z,19.92
2022-12-25T20:08:25.364Z,18.65
2022-12-25T20:10:54.674Z,19.77
2022-12-25T20:13:22.685Z,19.02
2022-12-25T20:15:51.284Z,18.92
2022-12-25T20:18:20.752Z,19.17
2022-12-25T20:20:48.709Z,17.90
2022-12-25T20:23:16.673Z,19.15
2022-12-25T20:25:44.639Z,19.92
2022-12-25T20:28:14.797Z,19.40
2022-12-25T20:30:42.946Z,18.23
2022-12-25T20:33:11.148Z,18.08
2022-12-25T20:35:39.152Z,20.47
2022-12-25T20:38:07.546Z,53.53
2022-12-25T20:40:59.936Z,43.45
2022-12-25T20:43:24.942Z,23.48
2022-12-25T20:45:53.464Z,26.67
2022-12-25T20:48:21.477Z,35.13
2022-12-25T20:50:50.998Z,26.45
2022-12-25T20:53:19.567Z,28.00
2022-12-25T20:55:48.944Z,33.80
2022-12-25T20:58:18.213Z,31.92
2022-12-25T21:00:47.736Z,30.20
2022-12-25T21:03:15.819Z,25.65
2022-12-25T21:05:50.710Z,21.60
2022-12-25T21:08:18.767Z,18.42
2022-12-25T21:10:50.510Z,18.73
2022-12-25T21:13:19.116Z,19.40
2022-12-25T21:15:49.710Z,19.15
2022-12-25T21:18:19.062Z,18.27
2022-12-25T21:20:48.968Z,15.20
2022-12-25T21:23:17.510Z,15.48
2022-12-25T21:25:46.139Z,16.02
2022-12-25T21:28:14.520Z,15.00
2022-12-25T21:30:42.736Z,17.13
2022-12-25T21:33:39.000Z,16.63
2022-12-25T21:36:08.627Z,22.77
2022-12-25T21:38:37.741Z,24.67
2022-12-25T21:43:34.687Z,19.17
2022-12-25T21:46:04.376Z,19.05
2022-12-25T21:48:35.349Z,17.83
2022-12-25T21:51:21.349Z,16.05
2022-12-25T21:53:49.529Z,13.77
2022-12-25T21:56:17.823Z,14.47
2022-12-25T21:58:47.161Z,15.00
2022-12-25T22:01:16.723Z,14.52
2022-12-25T22:03:46.368Z,15.85
2022-12-25T22:06:31.502Z,15.88
2022-12-25T22:08:59.424Z,14.27
2022-12-25T22:11:45.266Z,15.45
2022-12-25T22:14:51.008Z,15.52
2022-12-25T22:17:42.719Z,17.73
2022-12-25T22:20:14.852Z,21.15
2022-12-25T22:22:42.952Z,23.98
2022-12-25T22:25:12.018Z,24.35
2022-12-25T22:30:10.473Z,28.67
2022-12-25T22:32:38.512Z,37.25
2022-12-25T22:35:07.456Z,43.60
2022-12-25T22:37:37.279Z,46.20
2022-12-25T22:40:07.384Z,44.10
2022-12-25T22:42:35.499Z,40.92
2022-12-25T22:45:03.763Z,40.97
2022-12-25T22:47:31.864Z,39.20
2022-12-25T22:49:59.896Z,32.38
2022-12-25T22:52:28.166Z,33.38
2022-12-25T22:54:57.590Z,33.88
2022-12-25T22:57:26.634Z,32.50
2022-12-25T22:59:54.674Z,32.88
2022-12-25T23:02:23.362Z,32.75
2022-12-25T23:05:00.562Z,30.20
2022-12-25T23:07:30.521Z,29.40
2022-12-25T23:10:02.469Z,34.88
2022-12-25T23:13:02.391Z,38.13
2022-12-25T23:15:33.416Z,37.00
2022-12-25T23:18:17.954Z,36.90
2022-12-25T23:21:03.564Z,36.38
2022-12-25T23:24:04.389Z,36.47
2022-12-25T23:26:35.188Z,36.45
2022-12-25T23:29:20.872Z,38.38
2022-12-25T23:31:53.723Z,36.97
2022-12-25T23:34:22.410Z,34.70
2022-12-25T23:36:50.372Z,34.28
2022-12-25T23:39:23.244Z,36.45
2022-12-25T23:41:52.718Z,35.33
2022-12-25T23:44:23.334Z,35.22
2022-12-25T23:46:54.226Z,35.72
2022-12-25T23:49:26.216Z,34.08
2022-12-25T23:51:55.516Z,30.13
2022-12-25T23:54:30.985Z,26.08
2022-12-25T23:57:00.814Z,24.30
2022-12-25T23:59:45.271Z,25.42
